createdAt,value
2018-08-28T00:00:25.931Z,1008.92
2018-08-28T00:01:26.265Z,1008.97
2018-08-28T00:02:25.949Z,1008.93
2018-08-28T00:03:26.785Z,1008.98
2018-08-28T00:04:25.870Z,1008.95
2018-08-28T00:05:25.860Z,1009.00
2018-08-28T00:06:25.837Z,1009.00
2018-08-28T00:07:25.822Z,1009.03
2018-08-28T00:08:26.109Z,1009.04
2018-08-28T00:09:25.845Z,1009.07
2018-08-28T00:10:25.838Z,1009.06
2018-08-28T00:11:25.813Z,1009.07
2018-08-28T00:12:25.745Z,1009.05
2018-08-28T00:13:25.748Z,1009.07
2018-08-28T00:14:25.720Z,1009.09
2018-08-28T00:15:26.000Z,1009.06
2018-08-28T00:16:25.785Z,1009.08
2018-08-28T00:17:25.674Z,1009.04
2018-08-28T00:18:25.654Z,1009.04
2018-08-28T00:19:25.638Z,1009.10
2018-08-28T00:20:25.623Z,1009.09
2018-08-28T00:21:25.608Z,1009.13
2018-08-28T00:22:26.073Z,1009.17
2018-08-28T00:23:25.630Z,1009.10
2018-08-28T00:24:25.612Z,1009.15
2018-08-28T00:25:25.546Z,1009.12
2018-08-28T00:26:25.611Z,1009.14
2018-08-28T00:27:25.599Z,1009.09
2018-08-28T00:28:25.579Z,1009.13
2018-08-28T00:29:25.915Z,1009.10
2018-08-28T00:30:25.540Z,1009.12
2018-08-28T00:31:25.531Z,1009.13
2018-08-28T00:32:25.510Z,1009.14
2018-08-28T00:33:25.425Z,1009.12
2018-08-28T00:34:25.474Z,1009.12
2018-08-28T00:35:25.491Z,1009.11
2018-08-28T00:36:25.676Z,1009.10
2018-08-28T00:37:25.359Z,1009.07
2018-08-28T00:38:25.344Z,1009.11
2018-08-28T00:39:25.330Z,1009.06
2018-08-28T00:40:25.313Z,1009.06
2018-08-28T00:41:25.349Z,1009.11
2018-08-28T00:42:25.637Z,1009.08
2018-08-28T00:43:25.270Z,1009.09
2018-08-28T00:44:25.252Z,1009.07
2018-08-28T00:45:25.331Z,1009.13
2018-08-28T00:46:25.330Z,1009.17
2018-08-28T00:47:25.366Z,1009.21
2018-08-28T00:48:25.540Z,1009.17
2018-08-28T00:49:25.175Z,1009.18
2018-08-28T00:50:25.158Z,1009.18
2018-08-28T00:51:25.147Z,1009.23
2018-08-28T00:52:25.264Z,1009.28
2018-08-28T00:53:25.163Z,1009.23
2018-08-28T00:54:25.452Z,1009.26
2018-08-28T00:55:25.130Z,1009.27
2018-08-28T00:56:25.065Z,1009.28
2018-08-28T00:57:25.052Z,1009.31
2018-08-28T00:58:25.033Z,1009.33
2018-08-28T00:59:25.070Z,1009.33
2018-08-28T01:00:25.354Z,1009.37
2018-08-28T01:01:24.988Z,1009.32
2018-08-28T01:02:24.970Z,1009.35
2018-08-28T01:03:24.955Z,1009.38
2018-08-28T01:04:25.022Z,1009.39
2018-08-28T01:05:25.008Z,1009.40
2018-08-28T01:06:25.290Z,1009.35
2018-08-28T01:07:24.975Z,1009.37
2018-08-28T01:08:24.956Z,1009.41
2018-08-28T01:09:24.943Z,1009.42
2018-08-28T01:10:24.846Z,1009.39
2018-08-28T01:11:24.880Z,1009.45
2018-08-28T01:12:25.165Z,1009.45
2018-08-28T01:13:24.852Z,1009.43
2018-08-28T01:14:24.788Z,1009.44
2018-08-28T01:15:24.854Z,1009.45
2018-08-28T01:16:24.752Z,1009.44
2018-08-28T01:17:24.786Z,1009.47
2018-08-28T01:18:25.071Z,1009.41
2018-08-28T01:19:24.820Z,1009.43
2018-08-28T01:20:24.807Z,1009.45
2018-08-28T01:21:24.791Z,1009.44
2018-08-28T01:22:24.775Z,1009.48
2018-08-28T01:23:24.758Z,1009.49
2018-08-28T01:24:24.743Z,1009.49
2018-08-28T01:25:24.963Z,1009.48
2018-08-28T01:26:24.596Z,1009.46
2018-08-28T01:27:24.582Z,1009.49
2018-08-28T01:28:24.565Z,1009.49
2018-08-28T01:29:24.551Z,1009.50
2018-08-28T01:30:24.584Z,1009.45
2018-08-28T01:31:24.568Z,1009.49
2018-08-28T01:32:24.854Z,1009.49
2018-08-28T01:33:24.489Z,1009.50
2018-08-28T01:34:24.471Z,1009.48
2018-08-28T01:35:24.455Z,1009.52
2018-08-28T01:36:24.441Z,1009.50
2018-08-28T01:37:24.474Z,1009.47
2018-08-28T01:38:24.460Z,1009.45
2018-08-28T01:39:24.693Z,1009.50
2018-08-28T01:40:24.378Z,1009.48
2018-08-28T01:41:24.363Z,1009.50
2018-08-28T01:42:24.352Z,1009.50
2018-08-28T01:43:24.385Z,1009.50
2018-08-28T01:44:24.398Z,1009.51
2018-08-28T01:45:24.352Z,1009.53
2018-08-28T01:46:24.656Z,1009.58
2018-08-28T01:47:24.341Z,1009.54
2018-08-28T01:48:24.253Z,1009.52
2018-08-28T01:49:24.324Z,1009.51
2018-08-28T01:50:24.274Z,1009.55
2018-08-28T01:51:24.207Z,1009.55
2018-08-28T01:52:24.242Z,1009.56
2018-08-28T01:53:24.477Z,1009.51
2018-08-28T01:54:24.237Z,1009.51
2018-08-28T01:55:24.207Z,1009.51
2018-08-28T01:56:24.181Z,1009.50
2018-08-28T01:57:24.188Z,1009.52
2018-08-28T01:58:24.100Z,1009.54
2018-08-28T01:59:24.087Z,1009.52
2018-08-28T02:00:24.369Z,1009.53
2018-08-28T02:01:24.104Z,1009.50
2018-08-28T02:02:24.138Z,1009.51
2018-08-28T02:03:24.024Z,1009.52
2018-08-28T02:04:24.009Z,1009.55
2018-08-28T02:05:24.073Z,1009.54
2018-08-28T02:06:23.976Z,1009.53
2018-08-28T02:07:24.259Z,1009.53
2018-08-28T02:08:23.995Z,1009.54
2018-08-28T02:09:23.981Z,1009.49
2018-08-28T02:10:23.964Z,1009.52
2018-08-28T02:11:23.899Z,1009.50
2018-08-28T02:12:23.887Z,1009.47
2018-08-28T02:13:24.248Z,1009.53
2018-08-28T02:14:23.984Z,1009.50
2018-08-28T02:15:23.920Z,1009.52
2018-08-28T02:16:23.905Z,1009.51
2018-08-28T02:17:23.808Z,1009.54
2018-08-28T02:18:23.790Z,1009.62
2018-08-28T02:19:24.076Z,1009.58
2018-08-28T02:20:23.896Z,1009.57
2018-08-28T02:21:23.876Z,1009.58
2018-08-28T02:22:23.809Z,1009.59
2018-08-28T02:23:23.796Z,1009.60
2018-08-28T02:24:23.779Z,1009.55
2018-08-28T02:25:24.068Z,1009.59
2018-08-28T02:26:23.750Z,1009.62
2018-08-28T02:27:23.733Z,1009.64
2018-08-28T02:28:23.767Z,1009.63
2018-08-28T02:29:23.621Z,1009.61
2018-08-28T02:30:23.606Z,1009.60
2018-08-28T02:31:23.893Z,1009.60
2018-08-28T02:32:23.575Z,1009.58
2018-08-28T02:33:23.656Z,1009.63
2018-08-28T02:34:23.598Z,1009.59
2018-08-28T02:35:23.581Z,1009.57
2018-08-28T02:36:23.514Z,1009.61
2018-08-28T02:37:23.800Z,1009.57
2018-08-28T02:38:23.482Z,1009.55
2018-08-28T02:39:36.204Z,1009.59
2018-08-28T02:40:23.501Z,1009.57
2018-08-28T02:41:23.587Z,1009.57
2018-08-28T02:42:23.420Z,1009.58
2018-08-28T02:43:23.704Z,1009.58
2018-08-28T02:44:23.390Z,1009.56
2018-08-28T02:45:23.378Z,1009.59
2018-08-28T02:46:23.359Z,1009.57
2018-08-28T02:47:23.393Z,1009.60
2018-08-28T02:48:23.379Z,1009.61
2018-08-28T02:49:23.665Z,1009.55
2018-08-28T02:50:23.298Z,1009.57
2018-08-28T02:51:23.282Z,1009.55
2018-08-28T02:52:23.268Z,1009.57
2018-08-28T02:53:23.251Z,1009.49
2018-08-28T02:54:33.125Z,1009.53
2018-08-28T02:55:23.695Z,1009.56
2018-08-28T02:56:23.339Z,1009.59
2018-08-28T02:57:23.302Z,1009.60
2018-08-28T02:58:23.257Z,1009.63
2018-08-28T02:59:23.239Z,1009.67
2018-08-28T03:00:23.305Z,1009.72
2018-08-28T03:01:23.242Z,1009.69
2018-08-28T03:02:23.577Z,1009.76
2018-08-28T03:03:23.209Z,1009.78
2018-08-28T03:04:23.194Z,1009.78
2018-08-28T03:05:23.189Z,1009.82
2018-08-28T03:06:23.162Z,1009.82
2018-08-28T03:07:23.198Z,1009.85
2018-08-28T03:08:23.142Z,1009.86
2018-08-28T03:09:23.471Z,1009.88
2018-08-28T03:10:23.104Z,1009.89
2018-08-28T03:11:23.092Z,1009.90
2018-08-28T03:12:23.068Z,1009.90
2018-08-28T03:13:23.184Z,1009.94
2018-08-28T03:14:23.121Z,1009.94
2018-08-28T03:15:23.145Z,1009.97
2018-08-28T03:16:23.379Z,1009.96
2018-08-28T03:17:23.055Z,1010.06
2018-08-28T03:18:22.949Z,1010.06
2018-08-28T03:19:22.898Z,1010.10
2018-08-28T03:20:22.880Z,1010.11
2018-08-28T03:21:22.866Z,1010.13
2018-08-28T03:22:22.797Z,1010.09
2018-08-28T03:23:23.083Z,1010.13
2018-08-28T03:24:22.767Z,1010.14
2018-08-28T03:25:22.754Z,1010.13
2018-08-28T03:26:22.786Z,1010.12
2018-08-28T03:27:22.771Z,1010.15
2018-08-28T03:28:22.826Z,1010.17
2018-08-28T03:29:22.810Z,1010.19
2018-08-28T03:30:23.156Z,1010.16
2018-08-28T03:31:22.779Z,1010.20
2018-08-28T03:32:22.762Z,1010.20
2018-08-28T03:33:22.742Z,1010.19
2018-08-28T03:34:22.662Z,1010.20
2018-08-28T03:35:22.596Z,1010.20
2018-08-28T03:36:22.581Z,1010.18
2018-08-28T03:37:22.876Z,1010.22
2018-08-28T03:38:22.598Z,1010.20
2018-08-28T03:39:22.581Z,1010.25
2018-08-28T03:40:22.566Z,1010.22
2018-08-28T03:41:22.500Z,1010.24
2018-08-28T03:42:22.483Z,1010.25
2018-08-28T03:43:22.769Z,1010.26
2018-08-28T03:44:22.452Z,1010.26
2018-08-28T03:45:22.593Z,1010.20
2018-08-28T03:46:22.426Z,1010.26
2018-08-28T03:47:22.407Z,1010.27
2018-08-28T03:48:22.392Z,1010.23
2018-08-28T03:49:22.678Z,1010.24
2018-08-28T03:50:22.368Z,1010.25
2018-08-28T03:51:22.393Z,1010.26
2018-08-28T03:52:22.377Z,1010.29
2018-08-28T03:53:22.361Z,1010.30
2018-08-28T03:54:22.297Z,1010.30
2018-08-28T03:55:22.624Z,1010.32
2018-08-28T03:56:22.264Z,1010.33
2018-08-28T03:57:22.247Z,1010.35
2018-08-28T03:58:22.282Z,1010.36
2018-08-28T03:59:22.264Z,1010.36
2018-08-28T04:00:22.250Z,1010.41
2018-08-28T04:01:22.565Z,1010.39
2018-08-28T04:02:22.321Z,1010.42
2018-08-28T04:03:22.151Z,1010.45
2018-08-28T04:04:22.186Z,1010.43
2018-08-28T04:05:22.170Z,1010.39
2018-08-28T04:06:22.160Z,1010.42
2018-08-28T04:07:22.387Z,1010.41
2018-08-28T04:08:22.076Z,1010.40
2018-08-28T04:09:22.060Z,1010.44
2018-08-28T04:10:22.109Z,1010.45
2018-08-28T04:11:22.093Z,1010.43
2018-08-28T04:12:22.082Z,1010.47
2018-08-28T04:13:22.363Z,1010.53
2018-08-28T04:14:22.045Z,1010.55
2018-08-28T04:15:22.030Z,1010.55
2018-08-28T04:16:22.018Z,1010.55
2018-08-28T04:17:22.051Z,1010.60
2018-08-28T04:18:21.979Z,1010.53
2018-08-28T04:19:22.194Z,1010.59
2018-08-28T04:20:21.879Z,1010.57
2018-08-28T04:21:21.897Z,1010.59
2018-08-28T04:22:21.911Z,1010.60
2018-08-28T04:23:21.886Z,1010.60
2018-08-28T04:24:21.865Z,1010.61
2018-08-28T04:25:21.848Z,1010.59
2018-08-28T04:26:22.082Z,1010.62
2018-08-28T04:27:21.768Z,1010.61
2018-08-28T04:28:21.749Z,1010.59
2018-08-28T04:29:21.856Z,1010.65
2018-08-28T04:30:21.861Z,1010.63
2018-08-28T04:31:21.777Z,1010.67
2018-08-28T04:32:21.683Z,1010.66
2018-08-28T04:33:21.968Z,1010.68
2018-08-28T04:34:21.652Z,1010.71
2018-08-28T04:35:21.711Z,1010.66
2018-08-28T04:36:21.690Z,1010.71
2018-08-28T04:37:21.684Z,1010.72
2018-08-28T04:38:21.660Z,1010.75
2018-08-28T04:39:21.651Z,1010.72
2018-08-28T04:40:21.927Z,1010.73
2018-08-28T04:41:21.623Z,1010.75
2018-08-28T04:42:21.653Z,1010.73
2018-08-28T04:43:21.638Z,1010.76
2018-08-28T04:44:21.562Z,1010.73
2018-08-28T04:45:21.551Z,1010.74
2018-08-28T04:46:21.537Z,1010.72
2018-08-28T04:47:21.820Z,1010.75
2018-08-28T04:48:21.503Z,1010.76
2018-08-28T04:49:21.540Z,1010.77
2018-08-28T04:50:21.519Z,1010.80
2018-08-28T04:51:21.456Z,1010.80
2018-08-28T04:52:21.438Z,1010.77
2018-08-28T04:53:21.344Z,1010.76
2018-08-28T04:54:21.805Z,1010.78
2018-08-28T04:55:21.359Z,1010.80
2018-08-28T04:56:21.346Z,1010.81
2018-08-28T04:57:21.277Z,1010.84
2018-08-28T04:58:21.259Z,1010.84
2018-08-28T04:59:21.241Z,1010.89
2018-08-28T05:00:21.225Z,1010.88
2018-08-28T05:01:21.559Z,1010.82
2018-08-28T05:02:21.292Z,1010.89
2018-08-28T05:03:21.176Z,1010.86
2018-08-28T05:04:21.160Z,1010.93
2018-08-28T05:05:21.152Z,1010.89
2018-08-28T05:06:21.127Z,1010.88
2018-08-28T05:07:21.113Z,1010.90
2018-08-28T05:08:21.531Z,1010.92
2018-08-28T05:09:21.209Z,1010.91
2018-08-28T05:10:21.149Z,1010.92
2018-08-28T05:11:21.045Z,1010.91
2018-08-28T05:12:21.128Z,1010.96
2018-08-28T05:13:21.016Z,1010.99
2018-08-28T05:14:21.325Z,1011.00
2018-08-28T05:15:21.032Z,1011.05
2018-08-28T05:16:21.098Z,1011.01
2018-08-28T05:17:20.948Z,1011.07
2018-08-28T05:18:20.935Z,1011.05
2018-08-28T05:19:20.988Z,1011.06
2018-08-28T05:20:21.200Z,1011.09
2018-08-28T05:21:20.932Z,1011.10
2018-08-28T05:22:20.922Z,1011.11
2018-08-28T05:23:20.900Z,1011.15
2018-08-28T05:24:20.836Z,1011.22
2018-08-28T05:25:20.819Z,1011.21
2018-08-28T05:26:21.102Z,1011.19
2018-08-28T05:27:20.785Z,1011.23
2018-08-28T05:28:20.820Z,1011.23
2018-08-28T05:29:20.805Z,1011.23
2018-08-28T05:30:20.854Z,1011.21
2018-08-28T05:31:20.720Z,1011.23
2018-08-28T05:32:21.007Z,1011.28
2018-08-28T05:33:20.690Z,1011.23
2018-08-28T05:34:20.672Z,1011.22
2018-08-28T05:35:20.709Z,1011.25
2018-08-28T05:36:20.697Z,1011.29
2018-08-28T05:37:20.675Z,1011.33
2018-08-28T05:38:20.912Z,1011.39
2018-08-28T05:39:20.595Z,1011.37
2018-08-28T05:40:20.579Z,1011.40
2018-08-28T05:41:20.560Z,1011.37
2018-08-28T05:42:20.595Z,1011.30
2018-08-28T05:43:20.582Z,1011.39
2018-08-28T05:44:20.861Z,1011.38
2018-08-28T05:45:20.614Z,1011.38
2018-08-28T05:46:20.601Z,1011.38
2018-08-28T05:47:20.463Z,1011.40
2018-08-28T05:48:20.449Z,1011.40
2018-08-28T05:49:20.563Z,1011.41
2018-08-28T05:50:20.724Z,1011.43
2018-08-28T05:51:20.398Z,1011.41
2018-08-28T05:52:20.388Z,1011.44
2018-08-28T05:53:20.376Z,1011.40
2018-08-28T05:54:20.352Z,1011.44
2018-08-28T05:55:20.389Z,1011.44
2018-08-28T05:56:20.426Z,1011.42
2018-08-28T05:57:20.656Z,1011.49
2018-08-28T05:58:20.296Z,1011.45
2018-08-28T05:59:20.273Z,1011.45
2018-08-28T06:00:20.258Z,1011.47
2018-08-28T06:01:20.243Z,1011.45
2018-08-28T06:02:20.276Z,1011.49
2018-08-28T06:03:20.404Z,1011.50
2018-08-28T06:04:20.545Z,1011.47
2018-08-28T06:05:20.182Z,1011.50
2018-08-28T06:06:20.168Z,1011.50
2018-08-28T06:07:20.147Z,1011.49
2018-08-28T06:08:20.181Z,1011.55
2018-08-28T06:09:20.167Z,1011.54
2018-08-28T06:10:20.101Z,1011.51
2018-08-28T06:11:20.386Z,1011.55
2018-08-28T06:12:20.069Z,1011.58
2018-08-28T06:13:20.054Z,1011.56
2018-08-28T06:14:20.090Z,1011.53
2018-08-28T06:15:20.074Z,1011.55
2018-08-28T06:16:20.013Z,1011.58
2018-08-28T06:17:20.009Z,1011.61
2018-08-28T06:18:20.279Z,1011.60
2018-08-28T06:19:19.963Z,1011.64
2018-08-28T06:20:20.111Z,1011.62
2018-08-28T06:21:19.988Z,1011.67
2018-08-28T06:22:19.916Z,1011.66
2018-08-28T06:23:19.905Z,1011.67
2018-08-28T06:24:19.885Z,1011.67
2018-08-28T06:25:20.222Z,1011.69
2018-08-28T06:26:21.192Z,1011.72
2018-08-28T06:27:19.841Z,1011.71
2018-08-28T06:28:19.829Z,1011.69
2018-08-28T06:29:19.862Z,1011.72
2018-08-28T06:30:19.800Z,1011.74
2018-08-28T06:31:19.780Z,1011.70
2018-08-28T06:32:20.115Z,1011.69
2018-08-28T06:33:19.802Z,1011.71
2018-08-28T06:34:19.740Z,1011.73
2018-08-28T06:35:19.720Z,1011.74
2018-08-28T06:36:19.704Z,1011.71
2018-08-28T06:37:19.718Z,1011.76
2018-08-28T06:38:19.677Z,1011.75
2018-08-28T06:39:20.069Z,1011.73
2018-08-28T06:40:19.648Z,1011.76
2018-08-28T06:41:19.640Z,1011.83
2018-08-28T06:42:19.615Z,1011.76
2018-08-28T06:43:19.626Z,1011.76
2018-08-28T06:44:19.586Z,1011.83
2018-08-28T06:45:19.920Z,1011.77
2018-08-28T06:46:19.605Z,1011.77
2018-08-28T06:47:20.091Z,1011.79
2018-08-28T06:48:19.527Z,1011.81
2018-08-28T06:49:19.511Z,1011.82
2018-08-28T06:50:19.494Z,1011.82
2018-08-28T06:51:19.832Z,1011.85
2018-08-28T06:52:19.468Z,1011.87
2018-08-28T06:53:19.502Z,1011.84
2018-08-28T06:54:19.486Z,1011.91
2018-08-28T06:55:19.474Z,1011.86
2018-08-28T06:56:19.457Z,1011.92
2018-08-28T06:57:19.691Z,1011.90
2018-08-28T06:58:19.380Z,1011.93
2018-08-28T06:59:19.413Z,1011.91
2018-08-28T07:00:19.399Z,1011.93
2018-08-28T07:01:19.337Z,1011.91
2018-08-28T07:02:19.367Z,1011.95
2018-08-28T07:03:19.610Z,1011.95
2018-08-28T07:04:19.345Z,1011.94
2018-08-28T07:05:19.325Z,1011.97
2018-08-28T07:06:19.315Z,1011.99
2018-08-28T07:07:19.499Z,1012.01
2018-08-28T07:08:19.281Z,1012.03
2018-08-28T07:09:19.520Z,1012.02
2018-08-28T07:10:19.257Z,1012.03
2018-08-28T07:11:19.241Z,1011.99
2018-08-28T07:12:19.276Z,1011.99
2018-08-28T07:13:19.164Z,1011.97
2018-08-28T07:14:19.148Z,1012.01
2018-08-28T07:15:19.433Z,1012.03
2018-08-28T07:16:19.116Z,1012.05
2018-08-28T07:17:19.129Z,1012.06
2018-08-28T07:18:21.592Z,1011.98
2018-08-28T07:19:19.081Z,1012.01
2018-08-28T07:20:19.059Z,1012.05
2018-08-28T07:21:19.349Z,1012.05
2018-08-28T07:22:19.032Z,1012.03
2018-08-28T07:23:19.018Z,1012.07
2018-08-28T07:24:19.061Z,1012.04
2018-08-28T07:25:19.100Z,1012.02
2018-08-28T07:26:18.979Z,1012.06
2018-08-28T07:27:19.263Z,1012.29
2018-08-28T07:28:18.948Z,1012.33
2018-08-28T07:29:18.938Z,1012.27
2018-08-28T07:30:18.920Z,1012.25
2018-08-28T07:31:18.996Z,1012.39
2018-08-28T07:32:18.941Z,1012.40
2018-08-28T07:33:18.928Z,1012.35
2018-08-28T07:34:19.165Z,1012.45
2018-08-28T07:35:18.936Z,1012.54
2018-08-28T07:36:18.838Z,1012.23
2018-08-28T07:37:18.923Z,1012.58
2018-08-28T07:38:18.891Z,1012.52
2018-08-28T07:39:18.896Z,1012.13
2018-08-28T07:40:18.786Z,1012.50
2018-08-28T07:41:19.153Z,1012.40
2018-08-28T07:42:18.757Z,1012.48
2018-08-28T07:43:18.745Z,1012.18
2018-08-28T07:44:18.730Z,1012.26
2018-08-28T07:45:18.787Z,1012.29
2018-08-28T07:46:18.754Z,1012.31
2018-08-28T07:47:18.744Z,1012.26
2018-08-28T07:48:19.022Z,1012.24
2018-08-28T07:49:18.665Z,1012.33
2018-08-28T07:50:18.651Z,1012.30
2018-08-28T07:51:18.643Z,1012.34
2018-08-28T07:52:18.680Z,1012.37
2018-08-28T07:53:18.668Z,1012.35
2018-08-28T07:54:18.599Z,1012.36
2018-08-28T07:55:18.892Z,1012.37
2018-08-28T07:56:18.572Z,1012.25
2018-08-28T07:57:18.561Z,1012.33
2018-08-28T07:58:18.547Z,1012.39
2018-08-28T07:59:18.584Z,1012.34
2018-08-28T08:00:18.572Z,1012.39
2018-08-28T08:01:18.530Z,1012.42
2018-08-28T08:02:18.798Z,1012.45
2018-08-28T08:03:18.483Z,1012.45
2018-08-28T08:04:18.476Z,1012.42
2018-08-28T08:05:18.509Z,1012.43
2018-08-28T08:06:18.558Z,1012.45
2018-08-28T08:07:18.437Z,1012.50
2018-08-28T08:08:18.425Z,1012.50
2018-08-28T08:09:18.761Z,1012.56
2018-08-28T08:10:18.406Z,1012.53
2018-08-28T08:11:18.387Z,1012.63
2018-08-28T08:12:18.505Z,1012.60
2018-08-28T08:13:18.490Z,1012.60
2018-08-28T08:14:18.395Z,1012.48
2018-08-28T08:15:18.634Z,1012.59
2018-08-28T08:16:18.527Z,1012.58
2018-08-28T08:17:18.326Z,1012.60
2018-08-28T08:18:18.297Z,1012.60
2018-08-28T08:19:18.337Z,1012.61
2018-08-28T08:20:18.525Z,1012.63
2018-08-28T08:21:18.561Z,1012.65
2018-08-28T08:22:18.449Z,1012.67
2018-08-28T08:23:18.317Z,1012.63
2018-08-28T08:24:18.223Z,1012.59
2018-08-28T08:25:18.263Z,1012.56
2018-08-28T08:26:18.248Z,1012.68
2018-08-28T08:27:18.487Z,1012.71
2018-08-28T08:28:18.374Z,1012.69
2018-08-28T08:29:18.164Z,1012.70
2018-08-28T08:30:18.153Z,1012.69
2018-08-28T08:31:18.191Z,1012.66
2018-08-28T08:32:18.182Z,1012.74
2018-08-28T08:33:18.418Z,1012.61
2018-08-28T08:34:18.106Z,1012.74
2018-08-28T08:35:18.120Z,1012.71
2018-08-28T08:36:18.082Z,1012.74
2018-08-28T08:37:18.122Z,1012.60
2018-08-28T08:38:18.110Z,1012.61
2018-08-28T08:39:18.404Z,1012.70
2018-08-28T08:40:18.035Z,1012.68
2018-08-28T08:41:18.028Z,1012.70
2018-08-28T08:42:18.016Z,1012.72
2018-08-28T08:43:18.127Z,1012.77
2018-08-28T08:44:18.043Z,1012.74
2018-08-28T08:45:18.417Z,1012.77
2018-08-28T08:46:18.053Z,1012.75
2018-08-28T08:47:18.036Z,1012.73
2018-08-28T08:48:18.032Z,1012.65
2018-08-28T08:49:17.932Z,1012.71
2018-08-28T08:50:17.991Z,1012.78
2018-08-28T08:51:18.366Z,1012.79
2018-08-28T08:52:17.898Z,1012.80
2018-08-28T08:53:17.889Z,1012.58
2018-08-28T08:54:17.876Z,1012.61
2018-08-28T08:55:17.946Z,1012.63
2018-08-28T08:56:17.944Z,1012.57
2018-08-28T08:57:18.009Z,1012.70
2018-08-28T08:58:18.262Z,1012.65
2018-08-28T08:59:17.909Z,1012.72
2018-08-28T09:00:17.891Z,1012.72
2018-08-28T09:01:17.890Z,1012.79
2018-08-28T09:02:17.792Z,1012.78
2018-08-28T09:03:17.836Z,1012.81
2018-08-28T09:04:17.824Z,1012.93
2018-08-28T09:05:18.107Z,1012.82
2018-08-28T09:06:17.751Z,1013.01
2018-08-28T09:07:17.736Z,1012.88
2018-08-28T09:08:17.728Z,1013.01
2018-08-28T09:09:17.794Z,1012.84
2018-08-28T09:10:17.835Z,1012.67
2018-08-28T09:11:17.823Z,1012.72
2018-08-28T09:12:18.034Z,1013.03
2018-08-28T09:13:17.679Z,1013.10
2018-08-28T09:14:17.665Z,1013.05
2018-08-28T09:15:17.657Z,1013.17
2018-08-28T09:16:17.642Z,1013.01
2018-08-28T09:17:17.686Z,1012.98
2018-08-28T09:18:17.672Z,1012.99
2018-08-28T09:19:17.972Z,1013.29
2018-08-28T09:20:17.609Z,1012.74
2018-08-28T09:21:18.203Z,1012.73
2018-08-28T09:22:18.192Z,1013.32
2018-08-28T09:23:17.676Z,1013.31
2018-08-28T09:24:17.564Z,1013.17
2018-08-28T09:25:17.555Z,1013.29
2018-08-28T09:26:17.999Z,1013.12
2018-08-28T09:27:17.533Z,1013.25
2018-08-28T09:28:17.525Z,1013.27
2018-08-28T09:29:17.569Z,1013.23
2018-08-28T09:30:17.554Z,1013.33
2018-08-28T09:31:17.702Z,1013.34
2018-08-28T09:32:19.430Z,1012.85
2018-08-28T09:35:17.518Z,1013.52
2018-08-28T09:37:17.534Z,1012.86
2018-08-28T09:38:17.531Z,1012.77
2018-08-28T09:39:17.738Z,1012.76
2018-08-28T09:40:17.413Z,1012.79
2018-08-28T09:41:17.404Z,1012.76
2018-08-28T09:42:17.395Z,1012.75
2018-08-28T09:43:17.437Z,1012.79
2018-08-28T09:44:17.497Z,1012.81
2018-08-28T09:45:17.756Z,1012.83
2018-08-28T09:46:17.365Z,1013.62
2018-08-28T09:47:17.353Z,1013.44
2018-08-28T09:48:17.502Z,1013.51
2018-08-28T09:49:17.339Z,1013.54
2018-08-28T09:51:17.674Z,1013.50
2018-08-28T09:52:17.354Z,1013.43
2018-08-28T09:53:17.299Z,1013.49
2018-08-28T09:54:17.284Z,1013.45
2018-08-28T09:55:17.286Z,1012.77
2018-08-28T09:56:17.269Z,1012.81
2018-08-28T09:57:17.726Z,1012.75
2018-08-28T09:58:17.333Z,1012.80
2018-08-28T09:59:17.241Z,1012.79
2018-08-28T10:00:17.247Z,1012.77
2018-08-28T10:01:17.307Z,1012.80
2018-08-28T10:02:17.296Z,1012.79
2018-08-28T10:03:17.559Z,1012.79
2018-08-28T10:04:17.254Z,1012.77
2018-08-28T10:05:17.241Z,1012.78
2018-08-28T10:06:17.185Z,1012.79
2018-08-28T10:07:17.173Z,1012.75
2018-08-28T10:08:17.164Z,1012.81
2018-08-28T10:09:17.499Z,1012.77
2018-08-28T10:10:17.190Z,1012.71
2018-08-28T10:11:17.178Z,1012.70
2018-08-28T10:12:17.121Z,1012.73
2018-08-28T10:13:17.120Z,1012.75
2018-08-28T10:14:17.102Z,1012.78
2018-08-28T10:15:17.442Z,1012.78
2018-08-28T10:16:17.125Z,1012.83
2018-08-28T10:17:17.126Z,1012.84
2018-08-28T10:18:17.144Z,1012.85
2018-08-28T10:19:17.126Z,1012.84
2018-08-28T10:20:17.116Z,1012.84
2018-08-28T10:21:17.456Z,1012.87
2018-08-28T10:22:17.091Z,1012.87
2018-08-28T10:23:17.010Z,1012.86
2018-08-28T10:24:17.003Z,1012.87
2018-08-28T10:25:16.988Z,1012.88
2018-08-28T10:26:16.970Z,1012.89
2018-08-28T10:27:17.309Z,1012.93
2018-08-28T10:28:16.998Z,1012.91
2018-08-28T10:29:16.988Z,1012.88
2018-08-28T10:30:16.971Z,1012.93
2018-08-28T10:31:16.913Z,1012.90
2018-08-28T10:32:17.023Z,1012.87
2018-08-28T10:33:16.892Z,1012.89
2018-08-28T10:34:16.930Z,1012.89
2018-08-28T10:35:16.918Z,1012.94
2018-08-28T10:36:16.915Z,1013.29
2018-08-28T10:37:16.853Z,1013.27
2018-08-28T10:38:16.925Z,1013.23
2018-08-28T10:39:17.128Z,1013.29
2018-08-28T10:40:16.817Z,1013.29
2018-08-28T10:41:16.805Z,1012.95
2018-08-28T10:42:16.845Z,1012.88
2018-08-28T10:43:16.884Z,1012.99
2018-08-28T10:44:16.773Z,1012.95
2018-08-28T10:45:16.818Z,1012.85
2018-08-28T10:46:17.072Z,1012.86
2018-08-28T10:47:16.742Z,1012.81
2018-08-28T10:48:16.734Z,1012.83
2018-08-28T10:49:16.773Z,1012.85
2018-08-28T10:50:16.720Z,1012.82
2018-08-28T10:51:16.721Z,1012.76
2018-08-28T10:52:17.003Z,1012.78
2018-08-28T10:53:16.686Z,1012.74
2018-08-28T10:54:16.669Z,1012.78
2018-08-28T10:55:16.914Z,1012.73
2018-08-28T10:56:16.703Z,1012.77
2018-08-28T10:57:16.644Z,1012.78
2018-08-28T10:58:16.835Z,1012.77
2018-08-28T10:59:17.044Z,1012.83
2018-08-28T11:00:16.814Z,1012.81
2018-08-28T11:01:16.651Z,1012.80
2018-08-28T11:02:19.660Z,1012.86
2018-08-28T11:03:16.581Z,1012.83
2018-08-28T11:04:16.569Z,1012.85
2018-08-28T11:05:16.566Z,1012.85
2018-08-28T11:06:16.903Z,1012.90
2018-08-28T11:07:16.739Z,1012.89
2018-08-28T11:08:16.948Z,1012.95
2018-08-28T11:09:16.570Z,1013.08
2018-08-28T11:10:16.506Z,1013.00
2018-08-28T11:11:16.509Z,1013.01
2018-08-28T11:12:16.795Z,1013.05
2018-08-28T11:13:16.475Z,1012.89
2018-08-28T11:14:16.517Z,1012.96
2018-08-28T11:15:16.710Z,1012.96
2018-08-28T11:16:16.645Z,1012.93
2018-08-28T11:17:16.445Z,1013.28
2018-08-28T11:18:16.722Z,1013.34
2018-08-28T11:19:16.412Z,1013.24
2018-08-28T11:20:16.404Z,1013.23
2018-08-28T11:21:16.492Z,1013.23
2018-08-28T11:22:16.407Z,1013.04
2018-08-28T11:23:16.453Z,1012.93
2018-08-28T11:24:16.666Z,1013.11
2018-08-28T11:25:16.361Z,1013.05
2018-08-28T11:26:16.394Z,1013.00
2018-08-28T11:27:16.388Z,1012.99
2018-08-28T11:28:16.484Z,1012.97
2018-08-28T11:29:16.418Z,1013.01
2018-08-28T11:30:16.693Z,1013.02
2018-08-28T11:31:16.419Z,1012.94
2018-08-28T11:32:16.372Z,1013.01
2018-08-28T11:33:16.329Z,1013.01
2018-08-28T11:34:16.318Z,1012.98
2018-08-28T11:35:16.262Z,1012.99
2018-08-28T11:36:16.550Z,1013.00
2018-08-28T11:37:16.241Z,1013.06
2018-08-28T11:38:16.240Z,1013.08
2018-08-28T11:39:16.271Z,1013.05
2018-08-28T11:40:16.260Z,1013.07
2018-08-28T11:41:16.254Z,1013.04
2018-08-28T11:43:16.484Z,1013.09
2018-08-28T11:44:16.172Z,1013.11
2018-08-28T11:45:16.216Z,1013.12
2018-08-28T11:46:16.204Z,1013.10
2018-08-28T11:47:16.274Z,1013.11
2018-08-28T11:48:16.221Z,1013.10
2018-08-28T11:49:16.712Z,1013.19
2018-08-28T11:50:16.192Z,1013.14
2018-08-28T11:51:16.151Z,1013.19
2018-08-28T11:52:16.143Z,1013.13
2018-08-28T11:53:16.169Z,1013.15
2018-08-28T11:54:16.074Z,1013.15
2018-08-28T11:55:16.367Z,1013.17
2018-08-28T11:56:16.061Z,1013.11
2018-08-28T11:57:16.088Z,1013.14
2018-08-28T11:58:16.083Z,1013.11
2018-08-28T11:59:16.130Z,1013.16
2018-08-28T12:00:16.005Z,1013.15
2018-08-28T12:01:16.294Z,1013.17
2018-08-28T12:02:15.983Z,1013.18
2018-08-28T12:03:15.973Z,1013.12
2018-08-28T12:06:07.420Z,1013.15
2018-08-28T12:08:09.025Z,1013.22
2018-08-28T12:09:12.238Z,1013.17
2018-08-28T12:10:06.170Z,1013.20
2018-08-28T12:11:40.071Z,1013.22
2018-08-28T12:12:06.142Z,1013.15
2018-08-28T12:13:06.613Z,1013.15